createdAt,value
2018-05-26T00:00:12.332Z,3.73
2018-05-26T00:02:40.759Z,3.20
2018-05-26T00:05:09.176Z,3.17
2018-05-26T00:07:37.632Z,3.87
2018-05-26T00:10:06.057Z,3.63
2018-05-26T00:12:34.484Z,3.83
2018-05-26T00:15:02.944Z,3.00
2018-05-26T00:17:31.374Z,3.77
2018-05-26T00:19:59.799Z,3.13
2018-05-26T00:22:28.279Z,3.30
2018-05-26T00:24:56.712Z,3.73
2018-05-26T00:27:25.157Z,3.47
2018-05-26T00:29:53.635Z,3.37
2018-05-26T00:32:22.062Z,3.57
2018-05-26T00:34:50.478Z,3.53
2018-05-26T00:37:18.949Z,3.70
2018-05-26T00:39:47.360Z,3.60
2018-05-26T00:42:15.789Z,4.10
2018-05-26T00:44:44.256Z,3.83
2018-05-26T00:47:12.684Z,4.00
2018-05-26T00:49:41.109Z,3.87
2018-05-26T00:52:09.576Z,4.53
2018-05-26T00:54:37.995Z,3.87
2018-05-26T00:57:06.420Z,3.40
2018-05-26T00:59:35.068Z,4.20
2018-05-26T01:02:03.496Z,4.47
2018-05-26T01:04:31.917Z,4.07
2018-05-26T01:07:00.380Z,4.27
2018-05-26T01:09:28.805Z,4.20
2018-05-26T01:11:57.230Z,3.87
2018-05-26T01:14:25.716Z,4.47
2018-05-26T01:16:54.161Z,4.10
2018-05-26T01:19:22.583Z,3.57
2018-05-26T01:21:51.059Z,3.77
2018-05-26T01:24:19.492Z,3.73
2018-05-26T01:26:47.910Z,3.60
2018-05-26T01:29:16.375Z,3.83
2018-05-26T01:31:44.805Z,3.80
2018-05-26T01:34:13.237Z,3.73
2018-05-26T01:36:41.702Z,4.10
2018-05-26T01:39:10.125Z,3.93
2018-05-26T01:41:38.547Z,4.57
2018-05-26T01:44:07.164Z,5.17
2018-05-26T01:46:35.575Z,5.07
2018-05-26T01:49:04.005Z,5.47
2018-05-26T01:51:32.461Z,4.70
2018-05-26T01:54:00.871Z,4.93
2018-05-26T01:56:29.286Z,4.53
2018-05-26T01:58:57.752Z,5.20
2018-05-26T02:01:26.169Z,4.73
2018-05-26T02:03:54.605Z,4.77
2018-05-26T02:06:23.065Z,4.87
2018-05-26T02:08:51.501Z,4.60
2018-05-26T02:11:19.929Z,5.17
2018-05-26T02:13:48.420Z,4.23
2018-05-26T02:16:16.849Z,4.33
2018-05-26T02:21:20.052Z,4.50
2018-05-26T02:23:48.475Z,4.30
2018-05-26T02:26:16.940Z,4.57
2018-05-26T02:28:45.412Z,4.67
2018-05-26T02:31:13.843Z,4.20
2018-05-26T02:33:42.267Z,4.47
2018-05-26T02:36:10.736Z,4.37
2018-05-26T02:38:39.169Z,4.37
2018-05-26T02:41:07.616Z,4.40
2018-05-26T02:43:36.076Z,4.47
2018-05-26T02:46:04.498Z,4.53
2018-05-26T02:48:32.928Z,4.87
2018-05-26T02:51:01.423Z,4.57
2018-05-26T02:53:29.859Z,4.20
2018-05-26T02:55:58.282Z,4.07
2018-05-26T02:58:26.754Z,4.27
2018-05-26T03:00:55.173Z,4.00
2018-05-26T03:03:23.610Z,4.00
2018-05-26T03:05:57.585Z,3.97
2018-05-26T03:08:31.626Z,4.20
2018-05-26T03:11:05.766Z,4.30
2018-05-26T03:13:39.744Z,4.13
2018-05-26T03:16:10.665Z,4.70
2018-05-26T03:18:39.088Z,4.07
2018-05-26T03:21:07.495Z,4.03
2018-05-26T03:23:35.967Z,4.23
2018-05-26T03:26:04.395Z,4.67
2018-05-26T03:28:32.817Z,4.07
2018-05-26T03:31:01.267Z,4.63
2018-05-26T03:33:29.693Z,4.60
2018-05-26T03:35:58.126Z,4.23
2018-05-26T03:38:26.593Z,4.60
2018-05-26T03:40:55.028Z,4.20
2018-05-26T03:43:23.461Z,4.80
2018-05-26T03:45:51.920Z,4.77
2018-05-26T03:48:20.343Z,4.60
2018-05-26T03:50:48.785Z,4.30
2018-05-26T03:53:17.253Z,4.80
2018-05-26T03:59:03.456Z,4.57
2018-05-26T04:01:31.878Z,4.70
2018-05-26T04:04:00.293Z,4.13
2018-05-26T04:06:28.770Z,4.13
2018-05-26T04:08:57.200Z,4.70
2018-05-26T04:11:25.690Z,4.17
2018-05-26T04:13:54.133Z,4.07
2018-05-26T04:16:22.568Z,4.30
2018-05-26T04:18:51.020Z,4.30
2018-05-26T04:21:19.485Z,4.73
2018-05-26T04:23:47.914Z,4.70
2018-05-26T04:26:16.346Z,5.03
2018-05-26T04:28:44.812Z,4.53
2018-05-26T04:31:13.234Z,5.07
2018-05-26T04:33:41.663Z,5.00
2018-05-26T04:36:10.152Z,5.37
2018-05-26T04:38:38.577Z,5.70
2018-05-26T04:41:07.002Z,5.40
2018-05-26T04:43:35.464Z,5.47
2018-05-26T04:46:03.886Z,5.03
2018-05-26T04:48:32.308Z,4.40
2018-05-26T04:51:00.768Z,5.20
2018-05-26T04:53:29.189Z,5.33
2018-05-26T04:55:57.617Z,4.73
2018-05-26T04:58:26.093Z,5.30
2018-05-26T05:00:54.529Z,4.87
2018-05-26T05:03:22.936Z,5.13
2018-05-26T05:05:51.399Z,4.90
2018-05-26T05:08:19.823Z,5.10
2018-05-26T05:10:48.251Z,4.23
2018-05-26T05:13:16.717Z,4.73
2018-05-26T05:15:45.145Z,4.90
2018-05-26T05:18:13.564Z,4.87
2018-05-26T05:20:42.041Z,4.97
2018-05-26T05:23:10.468Z,4.33
2018-05-26T05:25:38.888Z,5.00
2018-05-26T05:28:07.357Z,4.90
2018-05-26T05:30:35.786Z,4.80
2018-05-26T05:33:04.224Z,5.27
2018-05-26T05:35:32.725Z,4.93
2018-05-26T05:38:01.160Z,4.90
2018-05-26T05:40:29.584Z,4.87
2018-05-26T05:42:58.049Z,5.20
2018-05-26T05:45:26.477Z,4.93
2018-05-26T05:47:54.912Z,5.03
2018-05-26T05:50:23.400Z,5.53
2018-05-26T05:52:51.851Z,5.43
2018-05-26T05:55:20.282Z,4.53
2018-05-26T05:57:48.749Z,5.10
2018-05-26T06:00:17.189Z,5.10
2018-05-26T06:02:45.624Z,5.00
2018-05-26T06:05:14.097Z,5.00
2018-05-26T06:07:42.524Z,4.80
2018-05-26T06:10:10.943Z,4.63
2018-05-26T06:12:39.423Z,4.73
2018-05-26T06:15:08.124Z,4.70
2018-05-26T06:17:36.529Z,4.60
2018-05-26T06:20:05.090Z,5.10
2018-05-26T06:22:33.522Z,5.00
2018-05-26T06:25:01.957Z,4.90
2018-05-26T06:27:30.425Z,4.80
2018-05-26T06:29:58.851Z,5.17
2018-05-26T06:32:27.264Z,4.30
2018-05-26T06:34:55.744Z,4.90
2018-05-26T06:37:24.180Z,4.60
2018-05-26T06:39:52.622Z,4.40
2018-05-26T06:42:21.086Z,4.53
2018-05-26T06:44:49.892Z,4.93
2018-05-26T06:47:18.344Z,3.90
2018-05-26T06:49:46.824Z,4.97
2018-05-26T06:52:15.278Z,4.00
2018-05-26T06:54:43.710Z,4.60
2018-05-26T06:57:12.181Z,4.23
2018-05-26T06:59:40.609Z,5.03
2018-05-26T07:02:09.057Z,4.53
2018-05-26T07:04:37.540Z,4.20
2018-05-26T07:07:05.957Z,4.80
2018-05-26T07:09:34.388Z,4.43
2018-05-26T07:12:02.836Z,4.63
2018-05-26T07:14:31.256Z,4.63
2018-05-26T07:16:59.683Z,4.60
2018-05-26T07:19:28.155Z,4.50
2018-05-26T07:21:56.585Z,4.47
2018-05-26T07:24:25.012Z,4.03
2018-05-26T07:26:53.480Z,4.83
2018-05-26T07:29:21.911Z,4.40
2018-05-26T07:31:50.339Z,4.37
2018-05-26T07:34:18.824Z,4.73
2018-05-26T07:36:47.289Z,4.03
2018-05-26T07:39:15.730Z,4.40
2018-05-26T07:41:44.372Z,4.70
2018-05-26T07:44:12.800Z,4.80
2018-05-26T07:46:41.256Z,4.20
2018-05-26T07:49:09.725Z,4.77
2018-05-26T07:51:38.157Z,4.70
2018-05-26T07:54:06.572Z,4.77
2018-05-26T07:56:35.043Z,4.30
2018-05-26T07:59:03.499Z,4.60
2018-05-26T08:01:31.965Z,4.70
2018-05-26T08:04:00.444Z,4.77
2018-05-26T08:06:28.860Z,5.03
2018-05-26T08:08:57.294Z,5.20
2018-05-26T08:11:25.805Z,5.23
2018-05-26T08:13:54.535Z,5.50
2018-05-26T08:16:23.173Z,5.87
2018-05-26T08:18:52.120Z,5.40
2018-05-26T08:21:21.009Z,5.20
2018-05-26T08:23:49.783Z,5.20
2018-05-26T08:26:18.710Z,5.10
2018-05-26T08:28:47.489Z,4.80
2018-05-26T08:31:16.239Z,4.55
2018-05-26T08:33:44.931Z,4.93
2018-05-26T08:36:13.834Z,4.43
2018-05-26T08:38:42.530Z,4.03
2018-05-26T08:41:11.175Z,4.30
2018-05-26T08:43:39.829Z,4.43
2018-05-26T08:46:08.481Z,4.05
2018-05-26T08:48:37.496Z,3.92
2018-05-26T08:51:06.187Z,4.12
2018-05-26T08:53:35.040Z,4.55
2018-05-26T08:56:03.768Z,5.82
2018-05-26T08:58:32.494Z,4.40
2018-05-26T09:01:01.088Z,5.43
2018-05-26T09:03:29.899Z,5.75
2018-05-26T09:05:58.330Z,5.55
2018-05-26T09:08:26.759Z,5.35
2018-05-26T09:10:55.221Z,5.78
2018-05-26T09:13:23.649Z,6.00
2018-05-26T09:15:52.081Z,5.95
2018-05-26T09:18:20.563Z,6.25
2018-05-26T09:20:48.988Z,6.72
2018-05-26T09:23:17.421Z,6.78
2018-05-26T09:25:45.884Z,6.03
2018-05-26T09:28:14.331Z,5.75
2018-05-26T09:30:42.766Z,5.28
2018-05-26T09:33:11.240Z,5.55
2018-05-26T09:35:39.670Z,5.18
2018-05-26T09:38:08.105Z,4.70
2018-05-26T09:40:36.577Z,4.18
2018-05-26T09:43:05.013Z,4.25
2018-05-26T09:45:33.444Z,4.70
2018-05-26T09:48:01.920Z,5.28
2018-05-26T09:50:30.391Z,4.75
2018-05-26T09:52:58.834Z,4.85
2018-05-26T09:55:27.305Z,4.15
2018-05-26T09:57:55.731Z,4.50
2018-05-26T10:00:24.157Z,4.32
2018-05-26T10:02:52.625Z,4.72
2018-05-26T10:05:21.053Z,4.40
2018-05-26T10:07:49.484Z,4.62
2018-05-26T10:10:17.959Z,3.92
2018-05-26T10:12:46.387Z,4.12
2018-05-26T10:15:14.820Z,4.50
2018-05-26T10:17:43.292Z,4.60
2018-05-26T10:20:11.713Z,4.30
2018-05-26T10:22:40.141Z,4.65
2018-05-26T10:25:08.608Z,4.28
2018-05-26T10:27:37.046Z,4.72
2018-05-26T10:30:05.506Z,4.80
2018-05-26T10:32:34.229Z,4.22
2018-05-26T10:35:02.684Z,4.72
2018-05-26T10:37:31.453Z,4.30
2018-05-26T10:39:59.916Z,4.07
2018-05-26T10:42:28.349Z,4.50
2018-05-26T10:44:56.781Z,4.30
2018-05-26T10:47:25.286Z,3.72
2018-05-26T10:49:53.705Z,3.75
2018-05-26T10:52:22.134Z,4.00
2018-05-26T10:54:50.619Z,4.37
2018-05-26T10:57:19.044Z,4.28
2018-05-26T10:59:47.473Z,4.60
2018-05-26T11:02:15.928Z,4.62
2018-05-26T11:04:44.361Z,4.20
2018-05-26T11:07:12.794Z,4.30
2018-05-26T11:09:41.280Z,4.60
2018-05-26T11:12:09.705Z,4.10
2018-05-26T11:14:38.159Z,3.90
2018-05-26T11:17:06.689Z,4.70
2018-05-26T11:19:35.126Z,3.95
2018-05-26T11:22:03.570Z,3.75
2018-05-26T11:24:32.098Z,4.20
2018-05-26T11:27:00.729Z,3.92
2018-05-26T11:29:29.154Z,3.83
2018-05-26T11:31:57.627Z,3.95
2018-05-26T11:34:26.061Z,3.62
2018-05-26T11:36:54.477Z,3.75
2018-05-26T11:39:22.952Z,3.60
2018-05-26T11:41:51.385Z,3.50
2018-05-26T11:44:19.808Z,4.28
2018-05-26T11:46:48.301Z,3.92
2018-05-26T11:49:16.729Z,3.95
2018-05-26T11:51:45.159Z,3.45
2018-05-26T11:54:13.636Z,3.90
2018-05-26T11:56:42.059Z,3.85
2018-05-26T11:59:10.490Z,4.15
2018-05-26T12:01:38.959Z,4.18
2018-05-26T12:04:07.384Z,4.10
2018-05-26T12:06:35.812Z,3.97
2018-05-26T12:09:04.317Z,3.50
2018-05-26T12:11:32.750Z,4.15
2018-05-26T12:14:01.177Z,3.67
2018-05-26T12:16:29.648Z,3.42
2018-05-26T12:18:58.070Z,3.37
2018-05-26T12:21:26.492Z,3.17
2018-05-26T12:23:54.951Z,4.00
2018-05-26T12:26:23.385Z,3.65
2018-05-26T12:28:51.999Z,3.35
2018-05-26T12:31:20.485Z,3.47
2018-05-26T12:33:48.909Z,3.28
2018-05-26T12:36:17.330Z,3.87
2018-05-26T12:38:45.788Z,3.53
2018-05-26T12:41:14.212Z,3.25
2018-05-26T12:43:42.641Z,3.17
2018-05-26T12:46:11.111Z,3.15
2018-05-26T12:48:39.536Z,3.42
2018-05-26T12:51:07.954Z,3.22
2018-05-26T12:53:36.423Z,3.67
2018-05-26T12:56:04.868Z,3.25
2018-05-26T12:58:33.291Z,3.37
2018-05-26T13:01:01.814Z,3.60
2018-05-26T13:03:30.237Z,3.42
2018-05-26T13:05:58.715Z,3.50
2018-05-26T13:08:27.212Z,3.60
2018-05-26T13:10:55.641Z,3.55
2018-05-26T13:13:24.062Z,3.58
2018-05-26T13:15:52.681Z,3.20
2018-05-26T13:18:21.123Z,2.97
2018-05-26T13:20:49.581Z,3.33
2018-05-26T13:23:18.079Z,3.00
2018-05-26T13:25:46.536Z,3.10
2018-05-26T13:28:14.974Z,2.80
2018-05-26T13:30:43.455Z,2.90
2018-05-26T13:33:11.910Z,2.53
2018-05-26T13:35:40.371Z,3.30
2018-05-26T13:38:08.843Z,3.40
2018-05-26T13:40:37.276Z,3.40
2018-05-26T13:43:05.702Z,3.30
2018-05-26T13:45:34.170Z,3.30
2018-05-26T13:48:02.626Z,3.10
2018-05-26T13:50:31.068Z,2.95
2018-05-26T13:52:59.688Z,3.00
2018-05-26T13:55:28.100Z,3.22
2018-05-26T13:57:56.541Z,2.55
2018-05-26T14:00:25.025Z,3.37
2018-05-26T14:02:53.456Z,2.92
2018-05-26T14:05:21.876Z,3.00
2018-05-26T14:07:50.340Z,3.37
2018-05-26T14:10:18.774Z,3.62
2018-05-26T14:12:47.206Z,3.03
2018-05-26T14:15:15.701Z,3.30
2018-05-26T14:17:44.125Z,3.08
2018-05-26T14:20:12.557Z,2.80
2018-05-26T14:22:41.028Z,3.25
2018-05-26T14:25:09.461Z,2.60
2018-05-26T14:27:37.900Z,4.32
2018-05-26T14:30:06.385Z,2.87
2018-05-26T14:32:34.873Z,2.80
2018-05-26T14:35:03.301Z,2.80
2018-05-26T14:37:31.784Z,2.80
2018-05-26T14:40:00.209Z,3.50
2018-05-26T14:42:28.636Z,2.92
2018-05-26T14:44:57.099Z,3.05
2018-05-26T14:47:25.524Z,2.85
2018-05-26T14:49:53.971Z,2.67
2018-05-26T14:52:22.444Z,3.10
2018-05-26T14:54:50.864Z,2.92
2018-05-26T14:57:19.301Z,2.92
2018-05-26T14:59:47.765Z,2.95
2018-05-26T15:02:16.208Z,2.83
2018-05-26T15:04:44.640Z,2.90
2018-05-26T15:07:13.108Z,2.67
2018-05-26T15:09:41.551Z,2.72
2018-05-26T15:12:10.016Z,3.00
2018-05-26T15:14:38.665Z,3.10
2018-05-26T15:17:07.110Z,2.55
2018-05-26T15:19:35.546Z,2.72
2018-05-26T15:22:04.048Z,2.83
2018-05-26T15:24:32.482Z,2.95
2018-05-26T15:27:00.909Z,2.75
2018-05-26T15:29:29.383Z,2.70
2018-05-26T15:31:57.833Z,2.90
2018-05-26T15:34:26.254Z,2.50
2018-05-26T15:36:54.731Z,2.67
2018-05-26T15:39:23.155Z,2.58
2018-05-26T15:41:51.583Z,2.75
2018-05-26T15:44:20.060Z,2.45
2018-05-26T15:46:48.484Z,2.80
2018-05-26T15:49:17.240Z,2.87
2018-05-26T15:51:45.717Z,3.10
2018-05-26T15:54:14.187Z,3.10
2018-05-26T15:56:42.604Z,2.75
2018-05-26T15:59:11.073Z,2.58
2018-05-26T16:01:39.511Z,4.07
2018-05-26T16:04:07.932Z,2.90
2018-05-26T16:06:36.416Z,3.05
2018-05-26T16:09:05.663Z,2.62
2018-05-26T16:11:34.093Z,3.12
2018-05-26T16:14:02.603Z,2.65
2018-05-26T16:16:31.029Z,2.85
2018-05-26T16:18:59.460Z,2.75
2018-05-26T16:21:27.934Z,2.90
2018-05-26T16:23:56.357Z,2.70
2018-05-26T16:26:24.788Z,3.03
2018-05-26T16:28:53.258Z,3.10
2018-05-26T16:31:21.689Z,3.10
2018-05-26T16:33:50.136Z,2.83
2018-05-26T16:36:18.612Z,2.90
2018-05-26T16:38:47.059Z,2.92
2018-05-26T16:41:15.484Z,2.75
2018-05-26T16:43:44.000Z,2.72
2018-05-26T16:46:12.468Z,2.30
2018-05-26T16:48:41.223Z,2.75
2018-05-26T16:51:09.716Z,3.10
2018-05-26T16:53:38.156Z,2.80
2018-05-26T16:56:06.584Z,3.65
2018-05-26T16:58:35.052Z,3.12
2018-05-26T17:01:03.481Z,2.70
2018-05-26T17:03:31.911Z,2.58
2018-05-26T17:06:00.381Z,2.95
2018-05-26T17:08:29.131Z,2.87
2018-05-26T17:10:57.564Z,2.70
2018-05-26T17:13:26.048Z,3.00
2018-05-26T17:15:54.491Z,2.92
2018-05-26T17:18:22.922Z,3.03
2018-05-26T17:20:51.407Z,3.45
2018-05-26T17:23:19.831Z,3.00
2018-05-26T17:25:48.265Z,3.12
2018-05-26T17:28:16.748Z,3.05
2018-05-26T17:30:45.180Z,2.72
2018-05-26T17:33:13.616Z,3.17
2018-05-26T17:35:42.100Z,3.03
2018-05-26T17:38:10.553Z,2.67
2018-05-26T17:40:39.009Z,2.92
2018-05-26T17:43:07.486Z,2.90
2018-05-26T17:45:35.940Z,2.72
2018-05-26T17:48:04.395Z,2.92
2018-05-26T17:50:32.884Z,3.12
2018-05-26T17:53:01.325Z,3.12
2018-05-26T17:55:30.007Z,2.58
2018-05-26T17:57:58.527Z,2.78
2018-05-26T18:00:26.953Z,3.00
2018-05-26T18:02:55.380Z,2.92
2018-05-26T18:05:23.862Z,3.10
2018-05-26T18:07:52.304Z,6.05
2018-05-26T18:10:20.745Z,5.75
2018-05-26T18:12:49.226Z,7.15
2018-05-26T18:15:17.676Z,5.80
2018-05-26T18:17:46.113Z,7.20
2018-05-26T18:20:14.598Z,5.78
2018-05-26T18:22:43.037Z,3.97
2018-05-26T18:25:11.492Z,5.10
2018-05-26T18:27:39.970Z,3.70
2018-05-26T18:30:08.404Z,3.25
2018-05-26T18:32:36.825Z,3.75
2018-05-26T18:35:05.292Z,3.10
2018-05-26T18:37:33.744Z,3.17
2018-05-26T18:40:02.189Z,3.08
2018-05-26T18:42:30.735Z,2.97
2018-05-26T18:44:59.178Z,3.10
2018-05-26T18:47:27.681Z,3.10
2018-05-26T18:49:56.353Z,3.05
2018-05-26T18:52:24.779Z,3.53
2018-05-26T18:54:53.220Z,3.58
2018-05-26T18:57:21.724Z,6.87
2018-05-26T18:59:50.159Z,3.80
2018-05-26T19:02:18.602Z,3.10
2018-05-26T19:04:47.093Z,3.60
2018-05-26T19:07:15.510Z,3.78
2018-05-26T19:09:43.948Z,3.30
2018-05-26T19:12:12.429Z,3.08
2018-05-26T19:14:40.858Z,3.50
2018-05-26T19:17:09.293Z,3.33
2018-05-26T19:19:37.769Z,3.12
2018-05-26T19:22:06.197Z,3.10
2018-05-26T19:24:34.636Z,3.45
2018-05-26T19:27:03.104Z,2.80
2018-05-26T19:29:31.541Z,3.30
2018-05-26T19:31:59.997Z,2.75
2018-05-26T19:34:28.461Z,3.20
2018-05-26T19:36:56.944Z,3.05
2018-05-26T19:39:25.357Z,2.80
2018-05-26T19:41:53.844Z,3.30
2018-05-26T19:44:22.280Z,3.45
2018-05-26T19:46:50.736Z,3.40
2018-05-26T19:49:19.197Z,3.30
2018-05-26T19:51:47.636Z,3.03
2018-05-26T19:54:16.061Z,2.85
2018-05-26T19:56:44.529Z,2.90
2018-05-26T19:59:12.967Z,3.08
2018-05-26T20:01:41.435Z,2.90
2018-05-26T20:04:09.931Z,3.00
2018-05-26T20:06:38.368Z,3.03
2018-05-26T20:09:06.798Z,3.00
2018-05-26T20:11:35.276Z,3.20
2018-05-26T20:14:03.717Z,3.40
2018-05-26T20:16:32.365Z,2.80
2018-05-26T20:19:00.862Z,3.17
2018-05-26T20:21:29.373Z,2.93
2018-05-26T20:23:57.802Z,3.40
2018-05-26T20:26:26.294Z,2.90
2018-05-26T20:28:54.718Z,3.10
2018-05-26T20:31:23.157Z,2.70
2018-05-26T20:33:51.616Z,2.87
2018-05-26T20:36:20.029Z,2.90
2018-05-26T20:38:48.482Z,3.07
2018-05-26T20:41:16.961Z,3.07
2018-05-26T20:43:45.429Z,3.00
2018-05-26T20:46:13.861Z,2.93
2018-05-26T20:48:42.517Z,2.93
2018-05-26T20:51:10.951Z,3.10
2018-05-26T20:53:39.370Z,2.80
2018-05-26T20:56:07.856Z,2.80
2018-05-26T20:58:36.282Z,2.83
2018-05-26T21:01:04.704Z,2.93
2018-05-26T21:03:33.184Z,2.93
2018-05-26T21:06:01.638Z,3.30
2018-05-26T21:08:30.076Z,3.17
2018-05-26T21:10:58.541Z,3.20
2018-05-26T21:13:26.992Z,3.13
2018-05-26T21:15:55.423Z,2.93
2018-05-26T21:18:23.906Z,2.93
2018-05-26T21:20:52.332Z,3.20
2018-05-26T21:23:20.768Z,2.80
2018-05-26T21:25:49.274Z,3.30
2018-05-26T21:28:17.705Z,2.83
2018-05-26T21:30:46.132Z,3.10
2018-05-26T21:33:14.598Z,3.07
2018-05-26T21:35:43.025Z,2.80
2018-05-26T21:38:11.451Z,3.10
2018-05-26T21:40:39.934Z,3.00
2018-05-26T21:43:08.686Z,2.83
2018-05-26T21:45:37.102Z,2.50
2018-05-26T21:48:05.569Z,2.90
2018-05-26T21:50:33.981Z,2.93
2018-05-26T21:53:02.405Z,2.53
2018-05-26T21:55:31.106Z,2.57
2018-05-26T21:57:59.536Z,2.77
2018-05-26T22:00:27.961Z,2.77
2018-05-26T22:02:56.450Z,2.87
2018-05-26T22:05:24.872Z,2.83
2018-05-26T22:07:53.301Z,3.07
2018-05-26T22:10:21.772Z,3.43
2018-05-26T22:12:50.211Z,3.10
2018-05-26T22:15:18.646Z,3.37
2018-05-26T22:17:47.109Z,3.47
2018-05-26T22:20:15.545Z,3.57
2018-05-26T22:22:43.972Z,3.10
2018-05-26T22:25:12.461Z,3.60
2018-05-26T22:27:40.880Z,3.37
2018-05-26T22:30:09.325Z,3.27
2018-05-26T22:32:37.797Z,3.20
2018-05-26T22:35:06.246Z,3.83
2018-05-26T22:37:34.668Z,2.97
2018-05-26T22:40:03.150Z,3.03
2018-05-26T22:42:31.585Z,2.93
2018-05-26T22:45:00.000Z,3.00
2018-05-26T22:47:28.498Z,3.20
2018-05-26T22:49:56.931Z,3.17
2018-05-26T22:52:25.364Z,2.87
2018-05-26T22:54:53.858Z,3.20
2018-05-26T22:57:22.349Z,3.57
2018-05-26T22:59:50.762Z,3.23
2018-05-26T23:02:19.254Z,3.23
2018-05-26T23:04:47.682Z,3.37
2018-05-26T23:07:16.152Z,3.20
2018-05-26T23:09:44.633Z,2.87
2018-05-26T23:12:13.070Z,3.67
2018-05-26T23:14:41.549Z,3.30
2018-05-26T23:17:10.024Z,2.83
2018-05-26T23:19:38.450Z,3.07
2018-05-26T23:22:06.894Z,3.00
2018-05-26T23:24:35.386Z,3.10
2018-05-26T23:27:03.810Z,2.90
2018-05-26T23:29:32.260Z,3.30
2018-05-26T23:32:00.725Z,3.60
2018-05-26T23:34:29.165Z,3.13
2018-05-26T23:36:57.598Z,3.57
2018-05-26T23:39:26.073Z,3.13
2018-05-26T23:41:54.516Z,3.50
2018-05-26T23:44:22.950Z,3.63
2018-05-26T23:46:51.430Z,3.60
2018-05-26T23:49:19.858Z,3.23
2018-05-26T23:51:48.292Z,3.90
2018-05-26T23:54:16.769Z,3.37
2018-05-26T23:56:45.193Z,3.77
2018-05-26T23:59:13.618Z,3.73
